sensor_id;sensor_type;location;lat;lon;timestamp;P1;durP1;ratioP1;P2;durP2;ratioP2
3967;SDS011;9221;42.646;23.380;2022-09-29T00:00:09;7.80;;;1.37;;
3967;SDS011;9221;42.646;23.380;2022-09-29T00:02:35;4.43;;;2.00;;
3967;SDS011;9221;42.646;23.380;2022-09-29T00:05:01;5.50;;;1.67;;
3967;SDS011;9221;42.646;23.380;2022-09-29T00:07:29;2.80;;;1.70;;
3967;SDS011;9221;42.646;23.380;2022-09-29T00:09:56;5.13;;;2.00;;
3967;SDS011;9221;42.646;23.380;2022-09-29T00:12:21;8.87;;;1.57;;
3967;SDS011;9221;42.646;23.380;2022-09-29T00:14:47;5.83;;;2.20;;
3967;SDS011;9221;42.646;23.380;2022-09-29T00:17:12;7.27;;;1.67;;
3967;SDS011;9221;42.646;23.380;2022-09-29T00:19:38;4.20;;;1.90;;
3967;SDS011;9221;42.646;23.380;2022-09-29T00:22:04;3.23;;;1.90;;
3967;SDS011;9221;42.646;23.380;2022-09-29T00:24:29;9.90;;;2.97;;
3967;SDS011;9221;42.646;23.380;2022-09-29T00:26:55;4.43;;;1.90;;
3967;SDS011;9221;42.646;23.380;2022-09-29T00:29:21;7.57;;;2.27;;
3967;SDS011;9221;42.646;23.380;2022-09-29T00:31:46;7.87;;;2.20;;
3967;SDS011;9221;42.646;23.380;2022-09-29T00:34:12;3.67;;;1.80;;
3967;SDS011;9221;42.646;23.380;2022-09-29T00:36:37;13.23;;;2.87;;
3967;SDS011;9221;42.646;23.380;2022-09-29T00:39:03;6.40;;;1.97;;
3967;SDS011;9221;42.646;23.380;2022-09-29T00:41:30;10.70;;;2.00;;
3967;SDS011;9221;42.646;23.380;2022-09-29T00:44:05;4.53;;;1.63;;
3967;SDS011;9221;42.646;23.380;2022-09-29T00:52:00;4.80;;;2.10;;
3967;SDS011;9221;42.646;23.380;2022-09-29T00:54:30;2.50;;;1.60;;
3967;SDS011;9221;42.646;23.380;2022-09-29T00:57:00;7.87;;;2.13;;
3967;SDS011;9221;42.646;23.380;2022-09-29T00:59:31;8.50;;;1.87;;
3967;SDS011;9221;42.646;23.380;2022-09-29T01:02:04;6.57;;;2.20;;
3967;SDS011;9221;42.646;23.380;2022-09-29T01:04:30;9.10;;;2.03;;
3967;SDS011;9221;42.646;23.380;2022-09-29T01:06:56;3.13;;;1.80;;
3967;SDS011;9221;42.646;23.380;2022-09-29T01:09:24;5.77;;;2.03;;
3967;SDS011;9221;42.646;23.380;2022-09-29T01:11:53;5.87;;;2.30;;
3967;SDS011;9221;42.646;23.380;2022-09-29T01:14:22;4.70;;;1.70;;
3967;SDS011;9221;42.646;23.380;2022-09-29T01:16:48;2.20;;;1.67;;
3967;SDS011;9221;42.646;23.380;2022-09-29T01:19:18;3.90;;;1.37;;
3967;SDS011;9221;42.646;23.380;2022-09-29T01:27:29;2.23;;;1.60;;
3967;SDS011;9221;42.646;23.380;2022-09-29T01:32:38;3.17;;;1.60;;
3967;SDS011;9221;42.646;23.380;2022-09-29T01:38:33;10.93;;;2.43;;
3967;SDS011;9221;42.646;23.380;2022-09-29T01:41:11;3.43;;;1.47;;
3967;SDS011;9221;42.646;23.380;2022-09-29T01:43:45;3.50;;;1.77;;
3967;SDS011;9221;42.646;23.380;2022-09-29T01:46:19;1.77;;;1.17;;
3967;SDS011;9221;42.646;23.380;2022-09-29T01:48:49;2.90;;;1.77;;
3967;SDS011;9221;42.646;23.380;2022-09-29T01:51:19;1.80;;;1.20;;
3967;SDS011;9221;42.646;23.380;2022-09-29T01:53:51;4.70;;;1.50;;
3967;SDS011;9221;42.646;23.380;2022-09-29T01:56:27;6.00;;;1.83;;
3967;SDS011;9221;42.646;23.380;2022-09-29T01:59:01;2.63;;;1.50;;
3967;SDS011;9221;42.646;23.380;2022-09-29T02:01:35;3.03;;;1.30;;
3967;SDS011;9221;42.646;23.380;2022-09-29T02:04:22;2.37;;;1.27;;
3967;SDS011;9221;42.646;23.380;2022-09-29T02:06:55;2.37;;;1.50;;
3967;SDS011;9221;42.646;23.380;2022-09-29T02:09:29;4.30;;;1.93;;
3967;SDS011;9221;42.646;23.380;2022-09-29T02:12:00;7.00;;;1.97;;
3967;SDS011;9221;42.646;23.380;2022-09-29T02:14:29;4.93;;;1.57;;
3967;SDS011;9221;42.646;23.380;2022-09-29T02:17:04;4.10;;;1.97;;
3967;SDS011;9221;42.646;23.380;2022-09-29T02:19:36;2.90;;;1.63;;
3967;SDS011;9221;42.646;23.380;2022-09-29T02:22:04;3.33;;;1.60;;
3967;SDS011;9221;42.646;23.380;2022-09-29T02:24:29;7.77;;;1.80;;
3967;SDS011;9221;42.646;23.380;2022-09-29T02:26:55;6.30;;;1.47;;
3967;SDS011;9221;42.646;23.380;2022-09-29T02:29:21;4.80;;;1.60;;
3967;SDS011;9221;42.646;23.380;2022-09-29T02:31:47;7.03;;;1.57;;
3967;SDS011;9221;42.646;23.380;2022-09-29T02:34:14;4.07;;;1.40;;
3967;SDS011;9221;42.646;23.380;2022-09-29T02:39:52;3.97;;;2.00;;
3967;SDS011;9221;42.646;23.380;2022-09-29T02:56:40;5.40;;;1.70;;
3967;SDS011;9221;42.646;23.380;2022-09-29T02:59:15;2.90;;;1.90;;
3967;SDS011;9221;42.646;23.380;2022-09-29T03:01:49;7.50;;;2.13;;
3967;SDS011;9221;42.646;23.380;2022-09-29T03:04:16;5.43;;;2.20;;
3967;SDS011;9221;42.646;23.380;2022-09-29T03:06:43;6.73;;;2.00;;
3967;SDS011;9221;42.646;23.380;2022-09-29T03:09:09;3.30;;;1.83;;
3967;SDS011;9221;42.646;23.380;2022-09-29T03:11:34;2.70;;;1.40;;
3967;SDS011;9221;42.646;23.380;2022-09-29T03:14:00;8.57;;;2.03;;
3967;SDS011;9221;42.646;23.380;2022-09-29T03:16:25;5.57;;;2.00;;
3967;SDS011;9221;42.646;23.380;2022-09-29T03:18:51;7.43;;;1.70;;
3967;SDS011;9221;42.646;23.380;2022-09-29T03:21:16;3.10;;;1.73;;
3967;SDS011;9221;42.646;23.380;2022-09-29T03:23:41;3.80;;;1.67;;
3967;SDS011;9221;42.646;23.380;2022-09-29T03:26:07;2.57;;;1.80;;
3967;SDS011;9221;42.646;23.380;2022-09-29T03:28:32;5.50;;;2.10;;
3967;SDS011;9221;42.646;23.380;2022-09-29T03:31:05;3.63;;;1.67;;
3967;SDS011;9221;42.646;23.380;2022-09-29T03:33:33;2.03;;;1.40;;
3967;SDS011;9221;42.646;23.380;2022-09-29T03:35:59;5.07;;;2.10;;
3967;SDS011;9221;42.646;23.380;2022-09-29T03:38:24;11.00;;;1.80;;
3967;SDS011;9221;42.646;23.380;2022-09-29T03:40:50;3.27;;;1.77;;
3967;SDS011;9221;42.646;23.380;2022-09-29T03:43:15;4.27;;;1.80;;
3967;SDS011;9221;42.646;23.380;2022-09-29T03:45:50;11.13;;;1.63;;
3967;SDS011;9221;42.646;23.380;2022-09-29T03:48:17;8.03;;;1.80;;
3967;SDS011;9221;42.646;23.380;2022-09-29T03:50:44;10.93;;;1.87;;
3967;SDS011;9221;42.646;23.380;2022-09-29T03:53:10;9.00;;;1.90;;
3967;SDS011;9221;42.646;23.380;2022-09-29T03:55:36;6.47;;;1.80;;
3967;SDS011;9221;42.646;23.380;2022-09-29T03:58:02;5.50;;;2.43;;
3967;SDS011;9221;42.646;23.380;2022-09-29T04:00:28;5.17;;;2.50;;
3967;SDS011;9221;42.646;23.380;2022-09-29T04:02:53;9.10;;;1.87;;
3967;SDS011;9221;42.646;23.380;2022-09-29T04:05:19;5.60;;;2.67;;
3967;SDS011;9221;42.646;23.380;2022-09-29T04:07:45;12.23;;;2.50;;
3967;SDS011;9221;42.646;23.380;2022-09-29T04:10:10;9.90;;;3.20;;
3967;SDS011;9221;42.646;23.380;2022-09-29T04:12:36;12.37;;;3.07;;
3967;SDS011;9221;42.646;23.380;2022-09-29T04:15:01;10.10;;;3.23;;
3967;SDS011;9221;42.646;23.380;2022-09-29T04:17:27;7.33;;;2.90;;
3967;SDS011;9221;42.646;23.380;2022-09-29T04:19:53;10.30;;;3.10;;
3967;SDS011;9221;42.646;23.380;2022-09-29T04:22:18;8.47;;;3.23;;
3967;SDS011;9221;42.646;23.380;2022-09-29T04:24:44;17.73;;;3.30;;
3967;SDS011;9221;42.646;23.380;2022-09-29T04:27:11;11.73;;;2.77;;
3967;SDS011;9221;42.646;23.380;2022-09-29T04:29:36;10.93;;;3.00;;
3967;SDS011;9221;42.646;23.380;2022-09-29T04:32:02;5.90;;;2.63;;
3967;SDS011;9221;42.646;23.380;2022-09-29T04:34:29;9.60;;;2.73;;
3967;SDS011;9221;42.646;23.380;2022-09-29T04:36:55;7.90;;;2.83;;
3967;SDS011;9221;42.646;23.380;2022-09-29T04:39:20;7.27;;;3.00;;
3967;SDS011;9221;42.646;23.380;2022-09-29T04:41:46;8.57;;;3.47;;
3967;SDS011;9221;42.646;23.380;2022-09-29T04:44:12;18.93;;;4.00;;
3967;SDS011;9221;42.646;23.380;2022-09-29T04:46:37;10.83;;;2.77;;
3967;SDS011;9221;42.646;23.380;2022-09-29T04:49:03;16.00;;;3.40;;
3967;SDS011;9221;42.646;23.380;2022-09-29T04:51:28;13.90;;;3.90;;
3967;SDS011;9221;42.646;23.380;2022-09-29T04:53:54;7.60;;;4.03;;
3967;SDS011;9221;42.646;23.380;2022-09-29T04:56:19;7.13;;;3.67;;
3967;SDS011;9221;42.646;23.380;2022-09-29T04:58:44;15.43;;;4.90;;
3967;SDS011;9221;42.646;23.380;2022-09-29T05:01:10;8.50;;;4.00;;
3967;SDS011;9221;42.646;23.380;2022-09-29T05:03:39;8.90;;;3.40;;
3967;SDS011;9221;42.646;23.380;2022-09-29T05:06:05;19.20;;;3.27;;
3967;SDS011;9221;42.646;23.380;2022-09-29T05:08:32;14.87;;;3.37;;
3967;SDS011;9221;42.646;23.380;2022-09-29T05:10:58;10.33;;;3.23;;
3967;SDS011;9221;42.646;23.380;2022-09-29T05:13:27;8.70;;;3.33;;
3967;SDS011;9221;42.646;23.380;2022-09-29T05:15:56;10.63;;;2.70;;
3967;SDS011;9221;42.646;23.380;2022-09-29T05:18:22;11.67;;;3.50;;
3967;SDS011;9221;42.646;23.380;2022-09-29T05:20:48;6.97;;;3.07;;
3967;SDS011;9221;42.646;23.380;2022-09-29T05:23:13;8.57;;;3.10;;
3967;SDS011;9221;42.646;23.380;2022-09-29T05:25:38;21.60;;;3.93;;
3967;SDS011;9221;42.646;23.380;2022-09-29T05:28:04;7.80;;;3.00;;
3967;SDS011;9221;42.646;23.380;2022-09-29T05:30:30;14.13;;;3.40;;
3967;SDS011;9221;42.646;23.380;2022-09-29T05:32:56;9.43;;;3.40;;
3967;SDS011;9221;42.646;23.380;2022-09-29T05:35:21;12.80;;;3.00;;
3967;SDS011;9221;42.646;23.380;2022-09-29T05:37:47;19.70;;;2.83;;
3967;SDS011;9221;42.646;23.380;2022-09-29T05:40:12;13.30;;;2.10;;
3967;SDS011;9221;42.646;23.380;2022-09-29T05:42:38;11.00;;;2.63;;
3967;SDS011;9221;42.646;23.380;2022-09-29T05:45:05;15.73;;;4.33;;
3967;SDS011;9221;42.646;23.380;2022-09-29T05:47:33;17.93;;;2.83;;
3967;SDS011;9221;42.646;23.380;2022-09-29T05:49:58;24.87;;;2.37;;
3967;SDS011;9221;42.646;23.380;2022-09-29T05:52:23;5.83;;;2.70;;
3967;SDS011;9221;42.646;23.380;2022-09-29T05:54:49;7.53;;;2.23;;
3967;SDS011;9221;42.646;23.380;2022-09-29T05:57:15;4.53;;;2.80;;
3967;SDS011;9221;42.646;23.380;2022-09-29T05:59:40;20.33;;;2.40;;
3967;SDS011;9221;42.646;23.380;2022-09-29T06:02:07;13.90;;;2.40;;
3967;SDS011;9221;42.646;23.380;2022-09-29T06:04:33;9.77;;;2.23;;
3967;SDS011;9221;42.646;23.380;2022-09-29T06:06:59;4.23;;;2.07;;
3967;SDS011;9221;42.646;23.380;2022-09-29T06:09:25;12.00;;;2.30;;
3967;SDS011;9221;42.646;23.380;2022-09-29T06:11:50;10.00;;;2.47;;
3967;SDS011;9221;42.646;23.380;2022-09-29T06:14:16;7.40;;;2.07;;
3967;SDS011;9221;42.646;23.380;2022-09-29T06:16:41;8.90;;;2.63;;
3967;SDS011;9221;42.646;23.380;2022-09-29T06:19:06;9.20;;;2.37;;
3967;SDS011;9221;42.646;23.380;2022-09-29T06:21:32;12.90;;;2.60;;
3967;SDS011;9221;42.646;23.380;2022-09-29T06:23:59;9.13;;;2.40;;
3967;SDS011;9221;42.646;23.380;2022-09-29T06:26:25;18.37;;;2.93;;
3967;SDS011;9221;42.646;23.380;2022-09-29T06:28:52;11.33;;;2.73;;
3967;SDS011;9221;42.646;23.380;2022-09-29T06:31:19;4.30;;;2.37;;
3967;SDS011;9221;42.646;23.380;2022-09-29T06:33:46;5.40;;;2.57;;
3967;SDS011;9221;42.646;23.380;2022-09-29T06:36:22;7.63;;;2.37;;
3967;SDS011;9221;42.646;23.380;2022-09-29T06:39:11;11.60;;;2.10;;
3967;SDS011;9221;42.646;23.380;2022-09-29T06:41:38;9.80;;;2.23;;
3967;SDS011;9221;42.646;23.380;2022-09-29T06:44:03;11.53;;;2.30;;
3967;SDS011;9221;42.646;23.380;2022-09-29T06:46:29;14.03;;;1.97;;
3967;SDS011;9221;42.646;23.380;2022-09-29T06:48:54;5.10;;;1.90;;
3967;SDS011;9221;42.646;23.380;2022-09-29T06:51:21;10.00;;;2.03;;
3967;SDS011;9221;42.646;23.380;2022-09-29T06:53:47;10.67;;;2.43;;
3967;SDS011;9221;42.646;23.380;2022-09-29T06:56:14;8.93;;;2.00;;
3967;SDS011;9221;42.646;23.380;2022-09-29T06:58:40;17.50;;;2.30;;
3967;SDS011;9221;42.646;23.380;2022-09-29T07:01:05;4.70;;;2.00;;
3967;SDS011;9221;42.646;23.380;2022-09-29T07:03:31;10.27;;;2.27;;
3967;SDS011;9221;42.646;23.380;2022-09-29T07:06:00;7.27;;;3.10;;
3967;SDS011;9221;42.646;23.380;2022-09-29T07:08:26;9.27;;;2.13;;
3967;SDS011;9221;42.646;23.380;2022-09-29T07:10:52;10.07;;;2.20;;
3967;SDS011;9221;42.646;23.380;2022-09-29T07:13:19;13.30;;;2.80;;
3967;SDS011;9221;42.646;23.380;2022-09-29T07:15:44;13.00;;;2.40;;
3967;SDS011;9221;42.646;23.380;2022-09-29T07:18:12;5.47;;;2.13;;
3967;SDS011;9221;42.646;23.380;2022-09-29T07:20:37;6.90;;;2.23;;
3967;SDS011;9221;42.646;23.380;2022-09-29T07:23:04;8.70;;;2.30;;
3967;SDS011;9221;42.646;23.380;2022-09-29T07:25:30;8.93;;;2.83;;
3967;SDS011;9221;42.646;23.380;2022-09-29T07:27:56;2.93;;;1.53;;
3967;SDS011;9221;42.646;23.380;2022-09-29T07:30:21;13.47;;;2.30;;
3967;SDS011;9221;42.646;23.380;2022-09-29T07:32:47;5.97;;;1.90;;
3967;SDS011;9221;42.646;23.380;2022-09-29T07:35:12;14.00;;;2.27;;
3967;SDS011;9221;42.646;23.380;2022-09-29T07:37:38;7.13;;;1.70;;
3967;SDS011;9221;42.646;23.380;2022-09-29T07:40:03;5.27;;;1.67;;
3967;SDS011;9221;42.646;23.380;2022-09-29T07:42:29;13.33;;;1.80;;
3967;SDS011;9221;42.646;23.380;2022-09-29T07:44:54;4.47;;;1.80;;
3967;SDS011;9221;42.646;23.380;2022-09-29T07:47:20;6.57;;;2.10;;
3967;SDS011;9221;42.646;23.380;2022-09-29T07:49:46;5.03;;;1.83;;
3967;SDS011;9221;42.646;23.380;2022-09-29T07:52:12;3.33;;;1.50;;
3967;SDS011;9221;42.646;23.380;2022-09-29T07:54:38;6.80;;;1.53;;
3967;SDS011;9221;42.646;23.380;2022-09-29T07:57:03;4.53;;;1.40;;
3967;SDS011;9221;42.646;23.380;2022-09-29T07:59:29;6.07;;;1.87;;
3967;SDS011;9221;42.646;23.380;2022-09-29T08:01:55;4.30;;;1.70;;
3967;SDS011;9221;42.646;23.380;2022-09-29T08:04:20;9.03;;;1.70;;
3967;SDS011;9221;42.646;23.380;2022-09-29T08:06:46;2.63;;;1.50;;
3967;SDS011;9221;42.646;23.380;2022-09-29T08:09:12;7.97;;;1.80;;
3967;SDS011;9221;42.646;23.380;2022-09-29T08:11:39;8.47;;;1.57;;
3967;SDS011;9221;42.646;23.380;2022-09-29T08:14:06;5.00;;;1.53;;
3967;SDS011;9221;42.646;23.380;2022-09-29T08:16:32;11.47;;;1.90;;
3967;SDS011;9221;42.646;23.380;2022-09-29T08:18:58;16.70;;;1.80;;
3967;SDS011;9221;42.646;23.380;2022-09-29T08:21:24;5.90;;;1.83;;
3967;SDS011;9221;42.646;23.380;2022-09-29T08:23:50;8.40;;;3.20;;
3967;SDS011;9221;42.646;23.380;2022-09-29T08:26:16;7.73;;;2.33;;
3967;SDS011;9221;42.646;23.380;2022-09-29T08:28:44;7.30;;;1.90;;
3967;SDS011;9221;42.646;23.380;2022-09-29T08:31:14;6.33;;;1.90;;
3967;SDS011;9221;42.646;23.380;2022-09-29T08:33:44;4.37;;;2.03;;
3967;SDS011;9221;42.646;23.380;2022-09-29T08:36:10;6.97;;;1.80;;
3967;SDS011;9221;42.646;23.380;2022-09-29T08:38:45;11.10;;;1.87;;
3967;SDS011;9221;42.646;23.380;2022-09-29T08:43:59;5.00;;;1.80;;
3967;SDS011;9221;42.646;23.380;2022-09-29T08:46:32;5.33;;;1.93;;
3967;SDS011;9221;42.646;23.380;2022-09-29T08:49:05;7.47;;;2.13;;
3967;SDS011;9221;42.646;23.380;2022-09-29T08:51:44;5.70;;;1.87;;
3967;SDS011;9221;42.646;23.380;2022-09-29T08:54:36;7.03;;;2.23;;
3967;SDS011;9221;42.646;23.380;2022-09-29T08:57:05;5.97;;;2.33;;
3967;SDS011;9221;42.646;23.380;2022-09-29T08:59:39;7.80;;;2.10;;
3967;SDS011;9221;42.646;23.380;2022-09-29T09:07:56;20.50;;;2.57;;
3967;SDS011;9221;42.646;23.380;2022-09-29T09:10:30;27.03;;;4.00;;
3967;SDS011;9221;42.646;23.380;2022-09-29T09:13:06;13.83;;;2.90;;
3967;SDS011;9221;42.646;23.380;2022-09-29T09:21:41;13.83;;;2.20;;
3967;SDS011;9221;42.646;23.380;2022-09-29T09:24:12;3.60;;;1.87;;
3967;SDS011;9221;42.646;23.380;2022-09-29T09:26:44;8.53;;;2.43;;
3967;SDS011;9221;42.646;23.380;2022-09-29T09:32:05;11.73;;;1.60;;
3967;SDS011;9221;42.646;23.380;2022-09-29T09:34:41;6.00;;;1.57;;
3967;SDS011;9221;42.646;23.380;2022-09-29T09:37:20;6.07;;;2.00;;
3967;SDS011;9221;42.646;23.380;2022-09-29T09:39:56;12.37;;;1.63;;
3967;SDS011;9221;42.646;23.380;2022-09-29T09:42:26;2.70;;;1.30;;
3967;SDS011;9221;42.646;23.380;2022-09-29T09:44:59;3.33;;;1.27;;
3967;SDS011;9221;42.646;23.380;2022-09-29T09:47:43;6.33;;;1.37;;
3967;SDS011;9221;42.646;23.380;2022-09-29T09:50:15;4.70;;;1.43;;
3967;SDS011;9221;42.646;23.380;2022-09-29T09:52:43;7.00;;;1.77;;
3967;SDS011;9221;42.646;23.380;2022-09-29T09:55:13;6.20;;;2.20;;
3967;SDS011;9221;42.646;23.380;2022-09-29T10:00:38;7.67;;;1.90;;
3967;SDS011;9221;42.646;23.380;2022-09-29T10:03:09;5.67;;;1.07;;
3967;SDS011;9221;42.646;23.380;2022-09-29T10:05:40;15.73;;;1.40;;
3967;SDS011;9221;42.646;23.380;2022-09-29T10:08:10;3.80;;;1.03;;
3967;SDS011;9221;42.646;23.380;2022-09-29T10:10:45;6.43;;;1.27;;
3967;SDS011;9221;42.646;23.380;2022-09-29T10:13:12;8.27;;;1.20;;
3967;SDS011;9221;42.646;23.380;2022-09-29T10:18:23;6.40;;;1.60;;
3967;SDS011;9221;42.646;23.380;2022-09-29T10:20:53;13.97;;;2.90;;
3967;SDS011;9221;42.646;23.380;2022-09-29T10:23:21;4.57;;;1.23;;
3967;SDS011;9221;42.646;23.380;2022-09-29T10:28:41;4.20;;;1.10;;
3967;SDS011;9221;42.646;23.380;2022-09-29T10:31:16;4.10;;;0.90;;
3967;SDS011;9221;42.646;23.380;2022-09-29T10:33:45;5.13;;;1.40;;
3967;SDS011;9221;42.646;23.380;2022-09-29T10:36:14;11.00;;;1.33;;
3967;SDS011;9221;42.646;23.380;2022-09-29T10:38:44;4.47;;;1.20;;
3967;SDS011;9221;42.646;23.380;2022-09-29T10:41:11;5.77;;;1.40;;
3967;SDS011;9221;42.646;23.380;2022-09-29T10:43:37;4.63;;;1.27;;
3967;SDS011;9221;42.646;23.380;2022-09-29T10:49:08;2.50;;;1.23;;
3967;SDS011;9221;42.646;23.380;2022-09-29T10:51:50;4.13;;;1.73;;
3967;SDS011;9221;42.646;23.380;2022-09-29T10:54:25;3.83;;;1.90;;
3967;SDS011;9221;42.646;23.380;2022-09-29T10:56:52;4.70;;;1.40;;
3967;SDS011;9221;42.646;23.380;2022-09-29T10:59:19;4.60;;;1.70;;
3967;SDS011;9221;42.646;23.380;2022-09-29T11:01:50;3.83;;;1.63;;
3967;SDS011;9221;42.646;23.380;2022-09-29T11:06:50;4.00;;;1.70;;
3967;SDS011;9221;42.646;23.380;2022-09-29T11:16:56;1.40;;;1.30;;
3967;SDS011;9221;42.646;23.380;2022-09-29T11:19:25;5.80;;;1.80;;
3967;SDS011;9221;42.646;23.380;2022-09-29T11:22:00;3.30;;;1.77;;
3967;SDS011;9221;42.646;23.380;2022-09-29T11:27:48;4.80;;;2.30;;
3967;SDS011;9221;42.646;23.380;2022-09-29T11:30:52;6.70;;;2.23;;
3967;SDS011;9221;42.646;23.380;2022-09-29T11:58:49;2.33;;;1.23;;
3967;SDS011;9221;42.646;23.380;2022-09-29T12:04:08;1.10;;;0.90;;
3967;SDS011;9221;42.646;23.380;2022-09-29T12:12:34;1.63;;;1.10;;
3967;SDS011;9221;42.646;23.380;2022-09-29T12:15:25;3.17;;;1.47;;
3967;SDS011;9221;42.646;23.380;2022-09-29T12:17:57;0.77;;;0.77;;
3967;SDS011;9221;42.646;23.380;2022-09-29T12:20:36;0.93;;;0.70;;
3967;SDS011;9221;42.646;23.380;2022-09-29T12:23:08;1.57;;;0.83;;
3967;SDS011;9221;42.646;23.380;2022-09-29T12:25:38;6.13;;;1.00;;
3967;SDS011;9221;42.646;23.380;2022-09-29T12:28:11;0.80;;;0.70;;
3967;SDS011;9221;42.646;23.380;2022-09-29T12:33:33;0.90;;;0.60;;
3967;SDS011;9221;42.646;23.380;2022-09-29T12:44:47;3.83;;;0.80;;
3967;SDS011;9221;42.646;23.380;2022-09-29T12:50:14;3.30;;;0.90;;
3967;SDS011;9221;42.646;23.380;2022-09-29T12:53:29;0.87;;;0.77;;
3967;SDS011;9221;42.646;23.380;2022-09-29T12:55:49;0.50;;;0.50;;
3967;SDS011;9221;42.646;23.380;2022-09-29T12:58:37;1.67;;;0.83;;
3967;SDS011;9221;42.646;23.380;2022-09-29T13:01:22;2.30;;;0.60;;
3967;SDS011;9221;42.646;23.380;2022-09-29T13:04:38;4.20;;;0.90;;
3967;SDS011;9221;42.646;23.380;2022-09-29T13:06:54;1.93;;;0.80;;
3967;SDS011;9221;42.646;23.380;2022-09-29T13:12:28;2.67;;;0.73;;
3967;SDS011;9221;42.646;23.380;2022-09-29T13:18:04;1.60;;;0.67;;
3967;SDS011;9221;42.646;23.380;2022-09-29T13:20:47;5.43;;;1.07;;
3967;SDS011;9221;42.646;23.380;2022-09-29T13:23:31;0.90;;;0.70;;
3967;SDS011;9221;42.646;23.380;2022-09-29T13:29:22;3.60;;;0.97;;
3967;SDS011;9221;42.646;23.380;2022-09-29T13:31:50;3.40;;;0.67;;
3967;SDS011;9221;42.646;23.380;2022-09-29T13:34:21;6.10;;;0.77;;
3967;SDS011;9221;42.646;23.380;2022-09-29T13:37:17;4.07;;;1.17;;
3967;SDS011;9221;42.646;23.380;2022-09-29T13:39:55;2.63;;;0.80;;
3967;SDS011;9221;42.646;23.380;2022-09-29T13:47:45;11.27;;;1.10;;
3967;SDS011;9221;42.646;23.380;2022-09-29T14:01:01;3.20;;;0.90;;
3967;SDS011;9221;42.646;23.380;2022-09-29T14:08:35;4.60;;;1.03;;
3967;SDS011;9221;42.646;23.380;2022-09-29T14:11:07;1.50;;;0.97;;
3967;SDS011;9221;42.646;23.380;2022-09-29T14:16:49;3.80;;;1.33;;
3967;SDS011;9221;42.646;23.380;2022-09-29T14:19:30;1.50;;;1.00;;
3967;SDS011;9221;42.646;23.380;2022-09-29T14:22:02;3.87;;;1.27;;
3967;SDS011;9221;42.646;23.380;2022-09-29T14:29:46;2.70;;;1.20;;
3967;SDS011;9221;42.646;23.380;2022-09-29T14:32:19;3.80;;;1.80;;
3967;SDS011;9221;42.646;23.380;2022-09-29T14:34:50;11.23;;;2.27;;
3967;SDS011;9221;42.646;23.380;2022-09-29T14:37:18;7.47;;;2.10;;
3967;SDS011;9221;42.646;23.380;2022-09-29T14:39:47;5.80;;;1.43;;
3967;SDS011;9221;42.646;23.380;2022-09-29T14:42:32;2.97;;;1.67;;
3967;SDS011;9221;42.646;23.380;2022-09-29T14:44:58;4.93;;;1.80;;
3967;SDS011;9221;42.646;23.380;2022-09-29T14:47:54;6.83;;;2.07;;
3967;SDS011;9221;42.646;23.380;2022-09-29T14:56:50;5.50;;;1.90;;
3967;SDS011;9221;42.646;23.380;2022-09-29T14:59:38;6.33;;;2.30;;
3967;SDS011;9221;42.646;23.380;2022-09-29T15:02:25;5.17;;;2.00;;
3967;SDS011;9221;42.646;23.380;2022-09-29T15:04:53;3.20;;;2.00;;
3967;SDS011;9221;42.646;23.380;2022-09-29T15:07:20;6.03;;;2.23;;
3967;SDS011;9221;42.646;23.380;2022-09-29T15:09:52;3.33;;;1.70;;
3967;SDS011;9221;42.646;23.380;2022-09-29T15:12:29;5.00;;;1.73;;
3967;SDS011;9221;42.646;23.380;2022-09-29T15:14:56;3.80;;;2.00;;
3967;SDS011;9221;42.646;23.380;2022-09-29T15:20:48;5.40;;;2.17;;
3967;SDS011;9221;42.646;23.380;2022-09-29T15:26:02;5.20;;;2.30;;
3967;SDS011;9221;42.646;23.380;2022-09-29T15:28:32;3.80;;;2.10;;
3967;SDS011;9221;42.646;23.380;2022-09-29T15:31:02;8.53;;;2.60;;
3967;SDS011;9221;42.646;23.380;2022-09-29T15:33:35;10.57;;;3.27;;
3967;SDS011;9221;42.646;23.380;2022-09-29T15:36:18;7.20;;;2.53;;
3967;SDS011;9221;42.646;23.380;2022-09-29T15:38:46;6.77;;;3.17;;
3967;SDS011;9221;42.646;23.380;2022-09-29T15:41:17;9.63;;;4.20;;
3967;SDS011;9221;42.646;23.380;2022-09-29T15:43:54;10.33;;;3.57;;
3967;SDS011;9221;42.646;23.380;2022-09-29T15:49:13;6.50;;;2.90;;
3967;SDS011;9221;42.646;23.380;2022-09-29T15:54:27;11.27;;;3.40;;
3967;SDS011;9221;42.646;23.380;2022-09-29T15:56:57;10.40;;;3.00;;
3967;SDS011;9221;42.646;23.380;2022-09-29T16:02:34;10.53;;;3.13;;
3967;SDS011;9221;42.646;23.380;2022-09-29T16:05:06;6.50;;;3.10;;
3967;SDS011;9221;42.646;23.380;2022-09-29T16:07:40;5.37;;;2.40;;
3967;SDS011;9221;42.646;23.380;2022-09-29T16:10:14;11.93;;;4.07;;
3967;SDS011;9221;42.646;23.380;2022-09-29T16:12:46;8.37;;;3.37;;
3967;SDS011;9221;42.646;23.380;2022-09-29T16:15:41;6.03;;;3.20;;
3967;SDS011;9221;42.646;23.380;2022-09-29T16:18:19;13.33;;;3.33;;
3967;SDS011;9221;42.646;23.380;2022-09-29T16:20:47;9.47;;;3.17;;
3967;SDS011;9221;42.646;23.380;2022-09-29T16:25:39;5.97;;;3.07;;
3967;SDS011;9221;42.646;23.380;2022-09-29T16:28:09;12.27;;;3.40;;
3967;SDS011;9221;42.646;23.380;2022-09-29T16:30:59;7.20;;;3.67;;
3967;SDS011;9221;42.646;23.380;2022-09-29T16:33:26;8.40;;;4.00;;
3967;SDS011;9221;42.646;23.380;2022-09-29T16:40:59;11.87;;;5.10;;
3967;SDS011;9221;42.646;23.380;2022-09-29T16:43:37;12.73;;;5.10;;
3967;SDS011;9221;42.646;23.380;2022-09-29T16:46:06;7.23;;;2.77;;
3967;SDS011;9221;42.646;23.380;2022-09-29T16:48:38;9.20;;;3.30;;
3967;SDS011;9221;42.646;23.380;2022-09-29T16:51:17;7.80;;;2.93;;
3967;SDS011;9221;42.646;23.380;2022-09-29T16:53:48;6.03;;;3.13;;
3967;SDS011;9221;42.646;23.380;2022-09-29T16:56:24;13.27;;;3.70;;
3967;SDS011;9221;42.646;23.380;2022-09-29T16:59:04;6.00;;;3.07;;
3967;SDS011;9221;42.646;23.380;2022-09-29T17:01:35;8.97;;;3.47;;
3967;SDS011;9221;42.646;23.380;2022-09-29T17:04:01;4.73;;;2.40;;
3967;SDS011;9221;42.646;23.380;2022-09-29T17:06:27;6.07;;;3.23;;
3967;SDS011;9221;42.646;23.380;2022-09-29T17:08:54;7.40;;;2.70;;
3967;SDS011;9221;42.646;23.380;2022-09-29T17:11:19;5.50;;;2.60;;
3967;SDS011;9221;42.646;23.380;2022-09-29T17:13:44;8.93;;;2.60;;
3967;SDS011;9221;42.646;23.380;2022-09-29T17:16:10;7.70;;;3.10;;
3967;SDS011;9221;42.646;23.380;2022-09-29T17:18:45;6.80;;;3.30;;
3967;SDS011;9221;42.646;23.380;2022-09-29T17:21:10;12.30;;;3.60;;
3967;SDS011;9221;42.646;23.380;2022-09-29T17:23:36;14.57;;;4.17;;
3967;SDS011;9221;42.646;23.380;2022-09-29T17:26:01;12.50;;;4.23;;
3967;SDS011;9221;42.646;23.380;2022-09-29T17:28:47;5.83;;;2.13;;
3967;SDS011;9221;42.646;23.380;2022-09-29T17:31:13;6.63;;;2.90;;
3967;SDS011;9221;42.646;23.380;2022-09-29T17:33:38;8.77;;;3.30;;
3967;SDS011;9221;42.646;23.380;2022-09-29T17:36:06;5.30;;;2.33;;
3967;SDS011;9221;42.646;23.380;2022-09-29T17:38:37;5.63;;;2.50;;
3967;SDS011;9221;42.646;23.380;2022-09-29T17:41:04;6.37;;;1.93;;
3967;SDS011;9221;42.646;23.380;2022-09-29T17:43:30;7.50;;;2.47;;
3967;SDS011;9221;42.646;23.380;2022-09-29T17:45:57;12.43;;;2.30;;
3967;SDS011;9221;42.646;23.380;2022-09-29T17:48:23;13.50;;;3.10;;
3967;SDS011;9221;42.646;23.380;2022-09-29T17:50:53;4.63;;;2.97;;
3967;SDS011;9221;42.646;23.380;2022-09-29T17:53:21;6.83;;;2.97;;
3967;SDS011;9221;42.646;23.380;2022-09-29T17:55:48;9.10;;;3.10;;
3967;SDS011;9221;42.646;23.380;2022-09-29T17:58:16;6.07;;;3.10;;
3967;SDS011;9221;42.646;23.380;2022-09-29T18:00:43;4.57;;;2.83;;
3967;SDS011;9221;42.646;23.380;2022-09-29T18:03:11;4.90;;;3.30;;
3967;SDS011;9221;42.646;23.380;2022-09-29T18:05:37;7.23;;;3.10;;
3967;SDS011;9221;42.646;23.380;2022-09-29T18:08:05;6.00;;;2.77;;
3967;SDS011;9221;42.646;23.380;2022-09-29T18:10:46;4.73;;;2.50;;
3967;SDS011;9221;42.646;23.380;2022-09-29T18:13:16;8.13;;;3.40;;
3967;SDS011;9221;42.646;23.380;2022-09-29T18:15:42;4.83;;;2.67;;
3967;SDS011;9221;42.646;23.380;2022-09-29T18:18:09;4.23;;;2.43;;
3967;SDS011;9221;42.646;23.380;2022-09-29T18:20:36;7.87;;;2.80;;
3967;SDS011;9221;42.646;23.380;2022-09-29T18:23:02;10.23;;;3.10;;
3967;SDS011;9221;42.646;23.380;2022-09-29T18:25:28;5.37;;;2.70;;